sensor_id;sensor_type;location;lat;lon;timestamp;temperature;humidity
6538;DHT22;3302;52.508;13.454;2022-12-29T00:02:04;7.80;99.90
6538;DHT22;3302;52.508;13.454;2022-12-29T00:04:29;7.80;99.90
6538;DHT22;3302;52.508;13.454;2022-12-29T00:06:55;7.80;99.90
6538;DHT22;3302;52.508;13.454;2022-12-29T00:09:22;7.80;99.90
6538;DHT22;3302;52.508;13.454;2022-12-29T00:11:48;7.80;99.90
6538;DHT22;3302;52.508;13.454;2022-12-29T00:14:15;7.80;99.90
6538;DHT22;3302;52.508;13.454;2022-12-29T00:17:00;7.90;99.90
6538;DHT22;3302;52.508;13.454;2022-12-29T00:19:26;7.80;99.90
6538;DHT22;3302;52.508;13.454;2022-12-29T00:22:12;7.80;99.90
6538;DHT22;3302;52.508;13.454;2022-12-29T00:24:57;7.90;99.90
6538;DHT22;3302;52.508;13.454;2022-12-29T00:27:41;7.90;99.90
6538;DHT22;3302;52.508;13.454;2022-12-29T00:30:26;7.90;99.90
6538;DHT22;3302;52.508;13.454;2022-12-29T00:33:12;8.00;99.90
6538;DHT22;3302;52.508;13.454;2022-12-29T00:36:05;8.00;99.90
6538;DHT22;3302;52.508;13.454;2022-12-29T00:38:35;7.90;99.90
6538;DHT22;3302;52.508;13.454;2022-12-29T00:41:21;8.00;99.90
6538;DHT22;3302;52.508;13.454;2022-12-29T00:44:07;8.00;99.90
6538;DHT22;3302;52.508;13.454;2022-12-29T00:46:40;8.00;99.90
6538;DHT22;3302;52.508;13.454;2022-12-29T00:49:07;8.00;99.90
6538;DHT22;3302;52.508;13.454;2022-12-29T00:51:52;8.00;99.90
6538;DHT22;3302;52.508;13.454;2022-12-29T00:54:18;8.00;99.90
6538;DHT22;3302;52.508;13.454;2022-12-29T00:56:49;8.00;99.90
6538;DHT22;3302;52.508;13.454;2022-12-29T00:59:15;8.00;99.90
6538;DHT22;3302;52.508;13.454;2022-12-29T01:01:41;8.00;99.90
6538;DHT22;3302;52.508;13.454;2022-12-29T01:04:07;8.00;99.90
6538;DHT22;3302;52.508;13.454;2022-12-29T01:06:34;8.00;99.90
6538;DHT22;3302;52.508;13.454;2022-12-29T01:09:00;8.00;99.90
6538;DHT22;3302;52.508;13.454;2022-12-29T01:11:44;8.00;99.90
6538;DHT22;3302;52.508;13.454;2022-12-29T01:14:10;8.00;99.90
6538;DHT22;3302;52.508;13.454;2022-12-29T01:16:36;8.00;99.90
6538;DHT22;3302;52.508;13.454;2022-12-29T01:19:03;8.00;99.90
6538;DHT22;3302;52.508;13.454;2022-12-29T01:21:29;8.00;99.90
6538;DHT22;3302;52.508;13.454;2022-12-29T01:23:54;8.00;99.90
6538;DHT22;3302;52.508;13.454;2022-12-29T01:26:20;8.00;99.90
6538;DHT22;3302;52.508;13.454;2022-12-29T01:28:46;8.10;99.90
6538;DHT22;3302;52.508;13.454;2022-12-29T01:31:13;8.10;99.90
6538;DHT22;3302;52.508;13.454;2022-12-29T01:33:39;8.10;99.90
6538;DHT22;3302;52.508;13.454;2022-12-29T01:36:08;8.10;99.90
6538;DHT22;3302;52.508;13.454;2022-12-29T01:38:36;8.10;99.90
6538;DHT22;3302;52.508;13.454;2022-12-29T01:41:03;8.10;99.90
6538;DHT22;3302;52.508;13.454;2022-12-29T01:51:30;8.10;99.90
6538;DHT22;3302;52.508;13.454;2022-12-29T01:53:59;8.00;99.90
6538;DHT22;3302;52.508;13.454;2022-12-29T01:56:27;8.00;99.90
6538;DHT22;3302;52.508;13.454;2022-12-29T01:58:58;8.00;99.90
6538;DHT22;3302;52.508;13.454;2022-12-29T02:01:25;8.00;99.90
6538;DHT22;3302;52.508;13.454;2022-12-29T02:03:51;8.00;99.90
6538;DHT22;3302;52.508;13.454;2022-12-29T02:06:18;7.90;99.90
6538;DHT22;3302;52.508;13.454;2022-12-29T02:08:47;7.90;99.90
6538;DHT22;3302;52.508;13.454;2022-12-29T02:11:13;7.90;99.90
6538;DHT22;3302;52.508;13.454;2022-12-29T02:13:41;7.90;99.90
6538;DHT22;3302;52.508;13.454;2022-12-29T02:18:58;7.90;99.90
6538;DHT22;3302;52.508;13.454;2022-12-29T02:32:30;7.90;99.90
6538;DHT22;3302;52.508;13.454;2022-12-29T02:37:59;8.00;99.90
6538;DHT22;3302;52.508;13.454;2022-12-29T02:40:43;8.00;99.90
6538;DHT22;3302;52.508;13.454;2022-12-29T02:45:59;8.00;99.90
6538;DHT22;3302;52.508;13.454;2022-12-29T02:48:33;8.00;99.90
6538;DHT22;3302;52.508;13.454;2022-12-29T02:51:04;8.20;99.90
6538;DHT22;3302;52.508;13.454;2022-12-29T02:53:34;8.20;99.90
6538;DHT22;3302;52.508;13.454;2022-12-29T02:56:20;8.20;99.90
6538;DHT22;3302;52.508;13.454;2022-12-29T02:58:46;8.30;99.90
6538;DHT22;3302;52.508;13.454;2022-12-29T03:07:00;8.30;99.90
6538;DHT22;3302;52.508;13.454;2022-12-29T03:09:37;8.40;99.90
6538;DHT22;3302;52.508;13.454;2022-12-29T03:20:12;8.60;99.90
6538;DHT22;3302;52.508;13.454;2022-12-29T03:22:42;8.70;99.90
6538;DHT22;3302;52.508;13.454;2022-12-29T03:25:15;8.70;99.90
6538;DHT22;3302;52.508;13.454;2022-12-29T03:27:55;8.60;99.90
6538;DHT22;3302;52.508;13.454;2022-12-29T03:30:23;8.60;99.90
6538;DHT22;3302;52.508;13.454;2022-12-29T03:32:55;8.70;99.90
6538;DHT22;3302;52.508;13.454;2022-12-29T03:35:25;8.80;99.90
6538;DHT22;3302;52.508;13.454;2022-12-29T03:38:05;8.80;99.90
6538;DHT22;3302;52.508;13.454;2022-12-29T03:40:33;8.70;99.90
6538;DHT22;3302;52.508;13.454;2022-12-29T03:43:01;8.80;99.90
6538;DHT22;3302;52.508;13.454;2022-12-29T03:45:28;8.70;99.90
6538;DHT22;3302;52.508;13.454;2022-12-29T03:47:54;8.80;99.90
6538;DHT22;3302;52.508;13.454;2022-12-29T03:50:20;8.80;99.90
6538;DHT22;3302;52.508;13.454;2022-12-29T03:52:46;8.80;99.90
6538;DHT22;3302;52.508;13.454;2022-12-29T03:55:11;8.90;99.90
6538;DHT22;3302;52.508;13.454;2022-12-29T03:57:37;8.90;99.90
6538;DHT22;3302;52.508;13.454;2022-12-29T04:00:05;8.90;99.90
6538;DHT22;3302;52.508;13.454;2022-12-29T04:02:31;8.90;99.90
6538;DHT22;3302;52.508;13.454;2022-12-29T04:04:57;8.90;99.90
6538;DHT22;3302;52.508;13.454;2022-12-29T04:07:22;8.90;99.90
6538;DHT22;3302;52.508;13.454;2022-12-29T04:09:48;8.90;99.90
6538;DHT22;3302;52.508;13.454;2022-12-29T04:12:14;8.80;99.90
6538;DHT22;3302;52.508;13.454;2022-12-29T04:14:40;8.90;99.90
6538;DHT22;3302;52.508;13.454;2022-12-29T04:17:06;8.90;99.90
6538;DHT22;3302;52.508;13.454;2022-12-29T04:19:32;8.90;99.90
6538;DHT22;3302;52.508;13.454;2022-12-29T04:21:57;8.90;99.90
6538;DHT22;3302;52.508;13.454;2022-12-29T04:24:23;8.90;99.90
6538;DHT22;3302;52.508;13.454;2022-12-29T04:26:49;8.90;99.90
6538;DHT22;3302;52.508;13.454;2022-12-29T04:29:15;8.90;99.90
6538;DHT22;3302;52.508;13.454;2022-12-29T04:31:41;9.00;99.90
6538;DHT22;3302;52.508;13.454;2022-12-29T04:34:07;9.00;99.90
6538;DHT22;3302;52.508;13.454;2022-12-29T04:36:32;9.00;99.90
6538;DHT22;3302;52.508;13.454;2022-12-29T04:38:58;9.00;99.90
6538;DHT22;3302;52.508;13.454;2022-12-29T04:41:24;9.00;99.90
6538;DHT22;3302;52.508;13.454;2022-12-29T04:43:50;9.00;99.90
6538;DHT22;3302;52.508;13.454;2022-12-29T04:46:16;9.00;99.90
6538;DHT22;3302;52.508;13.454;2022-12-29T04:48:42;9.00;99.90
6538;DHT22;3302;52.508;13.454;2022-12-29T04:51:08;9.00;99.90
6538;DHT22;3302;52.508;13.454;2022-12-29T04:53:33;9.00;99.90
6538;DHT22;3302;52.508;13.454;2022-12-29T04:55:59;9.10;99.90
6538;DHT22;3302;52.508;13.454;2022-12-29T04:58:25;9.00;99.90
6538;DHT22;3302;52.508;13.454;2022-12-29T05:00:51;9.10;99.90
6538;DHT22;3302;52.508;13.454;2022-12-29T05:03:18;9.10;99.90
6538;DHT22;3302;52.508;13.454;2022-12-29T05:05:44;9.10;99.90
6538;DHT22;3302;52.508;13.454;2022-12-29T05:08:09;9.10;99.90
6538;DHT22;3302;52.508;13.454;2022-12-29T05:10:35;9.10;99.90
6538;DHT22;3302;52.508;13.454;2022-12-29T05:13:01;9.10;99.90
6538;DHT22;3302;52.508;13.454;2022-12-29T05:15:27;9.20;99.90
6538;DHT22;3302;52.508;13.454;2022-12-29T05:17:52;9.20;99.90
6538;DHT22;3302;52.508;13.454;2022-12-29T05:20:18;9.30;99.90
6538;DHT22;3302;52.508;13.454;2022-12-29T05:22:44;9.30;99.90
6538;DHT22;3302;52.508;13.454;2022-12-29T05:25:10;9.30;99.90
6538;DHT22;3302;52.508;13.454;2022-12-29T05:27:36;9.30;99.90
6538;DHT22;3302;52.508;13.454;2022-12-29T05:30:03;9.40;99.90
6538;DHT22;3302;52.508;13.454;2022-12-29T05:32:29;9.30;99.90
6538;DHT22;3302;52.508;13.454;2022-12-29T05:34:55;9.40;99.90
6538;DHT22;3302;52.508;13.454;2022-12-29T05:37:20;9.40;99.90
6538;DHT22;3302;52.508;13.454;2022-12-29T05:39:46;9.40;99.90
6538;DHT22;3302;52.508;13.454;2022-12-29T05:42:12;9.50;99.90
6538;DHT22;3302;52.508;13.454;2022-12-29T05:44:38;9.50;99.90
6538;DHT22;3302;52.508;13.454;2022-12-29T05:47:03;9.40;99.90
6538;DHT22;3302;52.508;13.454;2022-12-29T05:49:29;9.50;99.90
6538;DHT22;3302;52.508;13.454;2022-12-29T05:51:55;9.50;99.90
6538;DHT22;3302;52.508;13.454;2022-12-29T05:54:21;9.50;99.90
6538;DHT22;3302;52.508;13.454;2022-12-29T05:56:46;9.60;99.90
6538;DHT22;3302;52.508;13.454;2022-12-29T05:59:12;9.50;99.90
6538;DHT22;3302;52.508;13.454;2022-12-29T06:01:38;9.60;99.90
6538;DHT22;3302;52.508;13.454;2022-12-29T06:04:04;9.60;99.90
6538;DHT22;3302;52.508;13.454;2022-12-29T06:06:29;9.60;99.90
6538;DHT22;3302;52.508;13.454;2022-12-29T06:08:55;9.60;99.90
6538;DHT22;3302;52.508;13.454;2022-12-29T06:11:21;9.70;99.90
6538;DHT22;3302;52.508;13.454;2022-12-29T06:13:47;9.70;99.90
6538;DHT22;3302;52.508;13.454;2022-12-29T06:16:12;9.70;99.90
6538;DHT22;3302;52.508;13.454;2022-12-29T06:18:38;9.70;99.90
6538;DHT22;3302;52.508;13.454;2022-12-29T06:21:05;9.80;99.90
6538;DHT22;3302;52.508;13.454;2022-12-29T06:23:31;9.80;99.90
6538;DHT22;3302;52.508;13.454;2022-12-29T06:25:57;9.80;99.90
6538;DHT22;3302;52.508;13.454;2022-12-29T06:28:23;9.90;99.90
6538;DHT22;3302;52.508;13.454;2022-12-29T06:30:49;9.90;99.90
6538;DHT22;3302;52.508;13.454;2022-12-29T06:33:15;9.90;99.90
6538;DHT22;3302;52.508;13.454;2022-12-29T06:35:42;9.90;99.90
6538;DHT22;3302;52.508;13.454;2022-12-29T06:38:08;9.80;99.90
6538;DHT22;3302;52.508;13.454;2022-12-29T06:40:34;9.90;99.90
6538;DHT22;3302;52.508;13.454;2022-12-29T06:43:00;9.80;99.90
6538;DHT22;3302;52.508;13.454;2022-12-29T06:45:26;9.80;99.90
6538;DHT22;3302;52.508;13.454;2022-12-29T06:47:52;9.80;99.90
6538;DHT22;3302;52.508;13.454;2022-12-29T06:50:18;9.90;99.90
6538;DHT22;3302;52.508;13.454;2022-12-29T06:52:43;9.90;99.90
6538;DHT22;3302;52.508;13.454;2022-12-29T06:55:09;9.90;99.90
6538;DHT22;3302;52.508;13.454;2022-12-29T06:57:35;9.90;99.90
6538;DHT22;3302;52.508;13.454;2022-12-29T07:00:02;9.90;99.90
6538;DHT22;3302;52.508;13.454;2022-12-29T07:02:27;9.90;99.90
6538;DHT22;3302;52.508;13.454;2022-12-29T07:04:53;10.00;99.90
6538;DHT22;3302;52.508;13.454;2022-12-29T07:07:20;9.90;99.90
6538;DHT22;3302;52.508;13.454;2022-12-29T07:09:46;10.00;99.90
6538;DHT22;3302;52.508;13.454;2022-12-29T07:12:12;10.00;99.90
6538;DHT22;3302;52.508;13.454;2022-12-29T07:14:38;10.00;99.90
6538;DHT22;3302;52.508;13.454;2022-12-29T07:17:05;10.00;99.90
6538;DHT22;3302;52.508;13.454;2022-12-29T07:19:32;9.90;99.90
6538;DHT22;3302;52.508;13.454;2022-12-29T07:21:58;9.90;99.90
6538;DHT22;3302;52.508;13.454;2022-12-29T07:24:24;9.90;99.90
6538;DHT22;3302;52.508;13.454;2022-12-29T07:26:51;9.90;99.90
6538;DHT22;3302;52.508;13.454;2022-12-29T07:29:17;10.00;99.90
6538;DHT22;3302;52.508;13.454;2022-12-29T07:31:43;10.00;99.90
6538;DHT22;3302;52.508;13.454;2022-12-29T07:34:09;9.90;99.90
6538;DHT22;3302;52.508;13.454;2022-12-29T07:36:35;9.90;99.90
6538;DHT22;3302;52.508;13.454;2022-12-29T07:39:02;10.00;99.90
6538;DHT22;3302;52.508;13.454;2022-12-29T07:41:28;9.90;99.90
6538;DHT22;3302;52.508;13.454;2022-12-29T07:43:54;10.00;99.90
6538;DHT22;3302;52.508;13.454;2022-12-29T07:46:20;10.00;99.90
6538;DHT22;3302;52.508;13.454;2022-12-29T07:48:46;10.10;99.90
6538;DHT22;3302;52.508;13.454;2022-12-29T07:51:11;10.00;99.90
6538;DHT22;3302;52.508;13.454;2022-12-29T07:53:37;10.00;99.90
6538;DHT22;3302;52.508;13.454;2022-12-29T07:56:03;10.10;99.90
6538;DHT22;3302;52.508;13.454;2022-12-29T07:58:29;10.10;99.90
6538;DHT22;3302;52.508;13.454;2022-12-29T08:00:55;10.10;99.90
6538;DHT22;3302;52.508;13.454;2022-12-29T08:03:22;10.10;99.90
6538;DHT22;3302;52.508;13.454;2022-12-29T08:05:48;10.10;99.90
6538;DHT22;3302;52.508;13.454;2022-12-29T08:08:14;10.20;99.90
6538;DHT22;3302;52.508;13.454;2022-12-29T08:10:40;10.20;99.90
6538;DHT22;3302;52.508;13.454;2022-12-29T08:13:06;10.10;99.90
6538;DHT22;3302;52.508;13.454;2022-12-29T08:15:31;10.10;99.90
6538;DHT22;3302;52.508;13.454;2022-12-29T08:17:57;10.20;99.90
6538;DHT22;3302;52.508;13.454;2022-12-29T08:20:23;10.20;99.90
6538;DHT22;3302;52.508;13.454;2022-12-29T08:22:49;10.10;99.90
6538;DHT22;3302;52.508;13.454;2022-12-29T08:25:15;10.20;99.90
6538;DHT22;3302;52.508;13.454;2022-12-29T08:27:41;10.10;99.90
6538;DHT22;3302;52.508;13.454;2022-12-29T08:30:07;10.20;99.90
6538;DHT22;3302;52.508;13.454;2022-12-29T08:32:33;10.20;99.90
6538;DHT22;3302;52.508;13.454;2022-12-29T08:34:59;10.10;99.90
6538;DHT22;3302;52.508;13.454;2022-12-29T08:37:26;10.20;99.90
6538;DHT22;3302;52.508;13.454;2022-12-29T08:39:52;10.20;99.90
6538;DHT22;3302;52.508;13.454;2022-12-29T08:42:17;10.30;99.90
6538;DHT22;3302;52.508;13.454;2022-12-29T08:44:43;10.30;99.90
6538;DHT22;3302;52.508;13.454;2022-12-29T08:47:10;10.30;99.90
6538;DHT22;3302;52.508;13.454;2022-12-29T08:49:36;10.30;99.90
6538;DHT22;3302;52.508;13.454;2022-12-29T08:52:02;10.30;99.90
6538;DHT22;3302;52.508;13.454;2022-12-29T08:54:28;10.30;99.90
6538;DHT22;3302;52.508;13.454;2022-12-29T08:56:53;10.30;99.90
6538;DHT22;3302;52.508;13.454;2022-12-29T08:59:19;10.30;99.90
6538;DHT22;3302;52.508;13.454;2022-12-29T09:01:45;10.30;99.90
6538;DHT22;3302;52.508;13.454;2022-12-29T09:04:11;10.30;99.90
6538;DHT22;3302;52.508;13.454;2022-12-29T09:06:37;10.40;99.90
6538;DHT22;3302;52.508;13.454;2022-12-29T09:09:02;10.40;99.90
6538;DHT22;3302;52.508;13.454;2022-12-29T09:11:29;10.40;99.90
6538;DHT22;3302;52.508;13.454;2022-12-29T09:13:54;10.40;99.90
6538;DHT22;3302;52.508;13.454;2022-12-29T09:16:22;10.40;99.90
6538;DHT22;3302;52.508;13.454;2022-12-29T09:18:48;10.40;99.90
6538;DHT22;3302;52.508;13.454;2022-12-29T09:21:14;10.40;99.90
6538;DHT22;3302;52.508;13.454;2022-12-29T09:23:40;10.50;99.90
6538;DHT22;3302;52.508;13.454;2022-12-29T09:26:07;10.50;99.90
6538;DHT22;3302;52.508;13.454;2022-12-29T09:28:33;10.60;99.90
6538;DHT22;3302;52.508;13.454;2022-12-29T09:30:59;10.60;99.90
6538;DHT22;3302;52.508;13.454;2022-12-29T09:33:25;10.60;99.90
6538;DHT22;3302;52.508;13.454;2022-12-29T09:35:54;10.70;99.90
6538;DHT22;3302;52.508;13.454;2022-12-29T09:38:20;10.80;99.90
6538;DHT22;3302;52.508;13.454;2022-12-29T09:46:34;10.70;99.90
6538;DHT22;3302;52.508;13.454;2022-12-29T09:49:39;10.70;99.90
6538;DHT22;3302;52.508;13.454;2022-12-29T09:54:53;10.80;99.90
6538;DHT22;3302;52.508;13.454;2022-12-29T10:00:05;10.90;99.90
6538;DHT22;3302;52.508;13.454;2022-12-29T10:02:42;11.00;99.80
6538;DHT22;3302;52.508;13.454;2022-12-29T10:05:24;11.00;99.60
6538;DHT22;3302;52.508;13.454;2022-12-29T10:08:16;11.00;99.80
6538;DHT22;3302;52.508;13.454;2022-12-29T10:11:20;11.00;99.80
6538;DHT22;3302;52.508;13.454;2022-12-29T10:14:31;11.10;99.70
6538;DHT22;3302;52.508;13.454;2022-12-29T10:19:38;11.10;99.60
6538;DHT22;3302;52.508;13.454;2022-12-29T10:24:32;11.10;99.70
6538;DHT22;3302;52.508;13.454;2022-12-29T10:27:00;11.20;99.50
6538;DHT22;3302;52.508;13.454;2022-12-29T10:29:40;11.40;99.00
6538;DHT22;3302;52.508;13.454;2022-12-29T10:34:52;11.50;99.20
6538;DHT22;3302;52.508;13.454;2022-12-29T10:37:45;11.60;99.00
6538;DHT22;3302;52.508;13.454;2022-12-29T10:40:28;11.70;98.70
6538;DHT22;3302;52.508;13.454;2022-12-29T10:42:58;11.80;98.60
6538;DHT22;3302;52.508;13.454;2022-12-29T10:45:28;11.90;98.50
6538;DHT22;3302;52.508;13.454;2022-12-29T10:48:03;11.90;98.50
6538;DHT22;3302;52.508;13.454;2022-12-29T10:50:30;11.90;98.50
6538;DHT22;3302;52.508;13.454;2022-12-29T10:52:59;12.00;98.40
6538;DHT22;3302;52.508;13.454;2022-12-29T10:55:35;11.90;98.20
6538;DHT22;3302;52.508;13.454;2022-12-29T10:58:09;11.90;98.30
6538;DHT22;3302;52.508;13.454;2022-12-29T11:00:35;11.90;98.30
6538;DHT22;3302;52.508;13.454;2022-12-29T11:06:28;11.90;98.30
6538;DHT22;3302;52.508;13.454;2022-12-29T11:09:09;11.90;98.10
6538;DHT22;3302;52.508;13.454;2022-12-29T11:11:37;11.90;98.20
6538;DHT22;3302;52.508;13.454;2022-12-29T11:16:39;12.00;98.20
6538;DHT22;3302;52.508;13.454;2022-12-29T11:19:23;11.90;98.10
6538;DHT22;3302;52.508;13.454;2022-12-29T11:21:50;12.00;98.00
6538;DHT22;3302;52.508;13.454;2022-12-29T11:24:28;12.00;98.00
6538;DHT22;3302;52.508;13.454;2022-12-29T11:27:08;12.00;98.10
6538;DHT22;3302;52.508;13.454;2022-12-29T11:29:38;12.00;98.30
6538;DHT22;3302;52.508;13.454;2022-12-29T11:32:22;11.90;98.30
6538;DHT22;3302;52.508;13.454;2022-12-29T11:34:49;11.90;98.40
6538;DHT22;3302;52.508;13.454;2022-12-29T11:37:18;11.90;98.60
6538;DHT22;3302;52.508;13.454;2022-12-29T11:39:55;11.80;98.90
6538;DHT22;3302;52.508;13.454;2022-12-29T11:42:40;11.80;99.30
6538;DHT22;3302;52.508;13.454;2022-12-29T11:45:28;11.80;99.90
6538;DHT22;3302;52.508;13.454;2022-12-29T11:48:20;11.60;99.90
6538;DHT22;3302;52.508;13.454;2022-12-29T11:51:07;11.60;99.90
6538;DHT22;3302;52.508;13.454;2022-12-29T11:53:59;11.50;99.90
6538;DHT22;3302;52.508;13.454;2022-12-29T11:56:38;11.50;99.90
6538;DHT22;3302;52.508;13.454;2022-12-29T12:02:36;11.40;99.90
6538;DHT22;3302;52.508;13.454;2022-12-29T12:05:51;11.40;99.90
6538;DHT22;3302;52.508;13.454;2022-12-29T12:11:22;11.20;99.90
6538;DHT22;3302;52.508;13.454;2022-12-29T12:14:42;11.10;99.90
6538;DHT22;3302;52.508;13.454;2022-12-29T12:17:31;10.90;99.90
6538;DHT22;3302;52.508;13.454;2022-12-29T12:20:22;10.70;99.90
6538;DHT22;3302;52.508;13.454;2022-12-29T12:22:58;10.60;99.90
6538;DHT22;3302;52.508;13.454;2022-12-29T12:25:51;10.60;99.90
6538;DHT22;3302;52.508;13.454;2022-12-29T12:30:55;10.50;99.90
6538;DHT22;3302;52.508;13.454;2022-12-29T12:33:29;10.50;99.90
6538;DHT22;3302;52.508;13.454;2022-12-29T12:36:22;10.50;99.90
6538;DHT22;3302;52.508;13.454;2022-12-29T12:39:25;10.30;99.90
6538;DHT22;3302;52.508;13.454;2022-12-29T12:50:38;10.30;99.90
6538;DHT22;3302;52.508;13.454;2022-12-29T12:53:19;10.30;99.90
6538;DHT22;3302;52.508;13.454;2022-12-29T13:03:28;10.20;99.90
6538;DHT22;3302;52.508;13.454;2022-12-29T13:09:00;10.40;99.90
6538;DHT22;3302;52.508;13.454;2022-12-29T13:11:52;10.40;99.90
6538;DHT22;3302;52.508;13.454;2022-12-29T13:14:42;10.30;99.90
6538;DHT22;3302;52.508;13.454;2022-12-29T13:17:27;10.30;99.90
6538;DHT22;3302;52.508;13.454;2022-12-29T13:22:41;10.30;99.90
6538;DHT22;3302;52.508;13.454;2022-12-29T13:25:24;10.30;99.90
6538;DHT22;3302;52.508;13.454;2022-12-29T13:28:14;10.30;99.90
6538;DHT22;3302;52.508;13.454;2022-12-29T13:30:51;10.30;99.90
6538;DHT22;3302;52.508;13.454;2022-12-29T13:36:01;10.20;99.90
6538;DHT22;3302;52.508;13.454;2022-12-29T13:38:51;10.20;99.90
6538;DHT22;3302;52.508;13.454;2022-12-29T13:41:32;10.20;99.90
6538;DHT22;3302;52.508;13.454;2022-12-29T13:44:00;10.20;99.90
6538;DHT22;3302;52.508;13.454;2022-12-29T13:46:33;10.30;99.90
6538;DHT22;3302;52.508;13.454;2022-12-29T13:49:11;10.30;99.90
6538;DHT22;3302;52.508;13.454;2022-12-29T13:51:43;10.30;99.90
6538;DHT22;3302;52.508;13.454;2022-12-29T13:56:42;10.30;99.90
6538;DHT22;3302;52.508;13.454;2022-12-29T13:59:21;10.40;99.90
6538;DHT22;3302;52.508;13.454;2022-12-29T14:04:28;10.40;99.90
6538;DHT22;3302;52.508;13.454;2022-12-29T14:09:47;10.40;99.90
6538;DHT22;3302;52.508;13.454;2022-12-29T14:12:35;10.40;99.90
6538;DHT22;3302;52.508;13.454;2022-12-29T14:15:04;10.30;99.90
6538;DHT22;3302;52.508;13.454;2022-12-29T14:17:30;10.30;99.90
6538;DHT22;3302;52.508;13.454;2022-12-29T14:19:55;10.30;99.90
6538;DHT22;3302;52.508;13.454;2022-12-29T14:22:28;10.30;99.90
6538;DHT22;3302;52.508;13.454;2022-12-29T14:24:54;10.30;99.90
6538;DHT22;3302;52.508;13.454;2022-12-29T14:29:47;10.30;99.90
6538;DHT22;3302;52.508;13.454;2022-12-29T14:35:36;10.30;99.90
6538;DHT22;3302;52.508;13.454;2022-12-29T14:37:46;10.30;99.90
6538;DHT22;3302;52.508;13.454;2022-12-29T14:40:25;10.30;99.90
6538;DHT22;3302;52.508;13.454;2022-12-29T14:42:54;10.30;99.90
6538;DHT22;3302;52.508;13.454;2022-12-29T14:47:48;10.30;99.90
6538;DHT22;3302;52.508;13.454;2022-12-29T14:53:00;10.30;99.90
6538;DHT22;3302;52.508;13.454;2022-12-29T14:55:46;10.40;99.90
6538;DHT22;3302;52.508;13.454;2022-12-29T14:58:59;10.30;99.90
6538;DHT22;3302;52.508;13.454;2022-12-29T15:01:42;10.30;99.90
6538;DHT22;3302;52.508;13.454;2022-12-29T15:04:24;10.30;99.90
6538;DHT22;3302;52.508;13.454;2022-12-29T15:06:51;10.30;99.90
6538;DHT22;3302;52.508;13.454;2022-12-29T15:09:31;10.30;99.90
6538;DHT22;3302;52.508;13.454;2022-12-29T15:14:52;10.30;99.90
6538;DHT22;3302;52.508;13.454;2022-12-29T15:17:26;10.30;99.90
6538;DHT22;3302;52.508;13.454;2022-12-29T15:19:53;10.40;99.90
6538;DHT22;3302;52.508;13.454;2022-12-29T15:22:19;10.30;99.90
6538;DHT22;3302;52.508;13.454;2022-12-29T15:24:46;10.10;99.90
6538;DHT22;3302;52.508;13.454;2022-12-29T15:27:19;9.20;99.90
6538;DHT22;3302;52.508;13.454;2022-12-29T15:29:46;9.10;99.90
6538;DHT22;3302;52.508;13.454;2022-12-29T15:32:42;9.20;99.90
6538;DHT22;3302;52.508;13.454;2022-12-29T15:35:34;9.10;99.90
6538;DHT22;3302;52.508;13.454;2022-12-29T15:38:30;9.10;99.90
6538;DHT22;3302;52.508;13.454;2022-12-29T15:41:00;9.10;99.90
6538;DHT22;3302;52.508;13.454;2022-12-29T15:46:12;9.10;99.90
6538;DHT22;3302;52.508;13.454;2022-12-29T15:48:39;9.10;99.90
6538;DHT22;3302;52.508;13.454;2022-12-29T15:51:18;9.10;99.90
6538;DHT22;3302;52.508;13.454;2022-12-29T15:53:47;9.10;99.90
6538;DHT22;3302;52.508;13.454;2022-12-29T15:56:14;9.20;99.90
6538;DHT22;3302;52.508;13.454;2022-12-29T15:58:45;9.20;99.90
6538;DHT22;3302;52.508;13.454;2022-12-29T16:01:28;9.20;99.90
6538;DHT22;3302;52.508;13.454;2022-12-29T16:03:55;9.20;99.90
6538;DHT22;3302;52.508;13.454;2022-12-29T16:06:29;9.20;99.90
6538;DHT22;3302;52.508;13.454;2022-12-29T16:09:06;9.30;99.90
6538;DHT22;3302;52.508;13.454;2022-12-29T16:11:38;9.40;99.90
6538;DHT22;3302;52.508;13.454;2022-12-29T16:14:21;9.40;99.90
6538;DHT22;3302;52.508;13.454;2022-12-29T16:16:50;9.50;99.90
6538;DHT22;3302;52.508;13.454;2022-12-29T16:19:24;9.40;99.90
6538;DHT22;3302;52.508;13.454;2022-12-29T16:21:51;9.40;99.90
6538;DHT22;3302;52.508;13.454;2022-12-29T16:24:24;9.50;99.90
6538;DHT22;3302;52.508;13.454;2022-12-29T16:26:59;9.50;99.90
6538;DHT22;3302;52.508;13.454;2022-12-29T16:29:29;9.50;99.90
6538;DHT22;3302;52.508;13.454;2022-12-29T16:31:57;9.60;99.90
6538;DHT22;3302;52.508;13.454;2022-12-29T16:37:19;9.70;99.90
6538;DHT22;3302;52.508;13.454;2022-12-29T16:39:49;9.60;99.90
6538;DHT22;3302;52.508;13.454;2022-12-29T16:50:34;9.90;99.90
6538;DHT22;3302;52.508;13.454;2022-12-29T16:53:02;9.80;99.90
6538;DHT22;3302;52.508;13.454;2022-12-29T16:55:29;9.80;99.90
6538;DHT22;3302;52.508;13.454;2022-12-29T16:57:55;9.80;99.90
6538;DHT22;3302;52.508;13.454;2022-12-29T17:00:27;9.90;99.90
6538;DHT22;3302;52.508;13.454;2022-12-29T17:02:58;9.90;99.90
6538;DHT22;3302;52.508;13.454;2022-12-29T17:05:24;9.90;99.90
6538;DHT22;3302;52.508;13.454;2022-12-29T17:07:50;10.00;99.90
6538;DHT22;3302;52.508;13.454;2022-12-29T17:10:20;9.90;99.90
6538;DHT22;3302;52.508;13.454;2022-12-29T17:12:47;9.90;99.90
6538;DHT22;3302;52.508;13.454;2022-12-29T17:15:24;9.90;99.90
6538;DHT22;3302;52.508;13.454;2022-12-29T17:17:52;9.90;99.90
6538;DHT22;3302;52.508;13.454;2022-12-29T17:22:44;10.00;99.90
6538;DHT22;3302;52.508;13.454;2022-12-29T17:25:18;10.10;99.90
6538;DHT22;3302;52.508;13.454;2022-12-29T17:30:42;10.10;99.60
6538;DHT22;3302;52.508;13.454;2022-12-29T17:33:17;10.10;99.40
6538;DHT22;3302;52.508;13.454;2022-12-29T17:35:43;10.10;99.10
6538;DHT22;3302;52.508;13.454;2022-12-29T17:38:28;10.10;98.70
6538;DHT22;3302;52.508;13.454;2022-12-29T17:40:54;10.20;98.60
6538;DHT22;3302;52.508;13.454;2022-12-29T17:43:20;10.20;98.60
6538;DHT22;3302;52.508;13.454;2022-12-29T17:45:54;10.10;98.90
6538;DHT22;3302;52.508;13.454;2022-12-29T17:48:21;10.20;98.00
6538;DHT22;3302;52.508;13.454;2022-12-29T17:50:50;10.20;98.10
6538;DHT22;3302;52.508;13.454;2022-12-29T17:53:21;10.30;97.70
6538;DHT22;3302;52.508;13.454;2022-12-29T17:55:48;10.30;97.80
6538;DHT22;3302;52.508;13.454;2022-12-29T17:58:21;10.30;98.00
6538;DHT22;3302;52.508;13.454;2022-12-29T18:00:50;10.30;97.60
6538;DHT22;3302;52.508;13.454;2022-12-29T18:03:19;10.40;97.30
6538;DHT22;3302;52.508;13.454;2022-12-29T18:05:45;10.30;97.40
6538;DHT22;3302;52.508;13.454;2022-12-29T18:08:11;10.30;97.70
6538;DHT22;3302;52.508;13.454;2022-12-29T18:10:38;10.40;97.20
6538;DHT22;3302;52.508;13.454;2022-12-29T18:13:04;10.30;97.10
6538;DHT22;3302;52.508;13.454;2022-12-29T18:15:33;10.30;97.50
6538;DHT22;3302;52.508;13.454;2022-12-29T18:18:16;10.20;97.80
6538;DHT22;3302;52.508;13.454;2022-12-29T18:20:43;10.20;97.60
6538;DHT22;3302;52.508;13.454;2022-12-29T18:25:56;10.30;97.30
6538;DHT22;3302;52.508;13.454;2022-12-29T18:28:23;10.20;97.50
6538;DHT22;3302;52.508;13.454;2022-12-29T18:30:50;10.10;98.30
6538;DHT22;3302;52.508;13.454;2022-12-29T18:33:17;10.10;97.80
6538;DHT22;3302;52.508;13.454;2022-12-29T18:36:04;10.00;97.90
6538;DHT22;3302;52.508;13.454;2022-12-29T18:38:30;10.00;98.10
6538;DHT22;3302;52.508;13.454;2022-12-29T18:40:57;10.00;98.10
6538;DHT22;3302;52.508;13.454;2022-12-29T18:43:24;9.90;98.80